sensor_id;sensor_type;location;lat;lon;timestamp;pressure;altitude;pressure_sealevel;temperature;humidity
30636;BME280;17400;52.392;9.750;2023-03-20T00:01:58;101064.00;;;12.61;100.00
30636;BME280;17400;52.392;9.750;2023-03-20T00:04:27;101078.25;;;12.63;100.00
30636;BME280;17400;52.392;9.750;2023-03-20T00:06:55;101071.94;;;12.63;100.00
30636;BME280;17400;52.392;9.750;2023-03-20T00:09:23;101071.53;;;12.66;100.00
30636;BME280;17400;52.392;9.750;2023-03-20T00:11:52;101071.34;;;12.68;100.00
30636;BME280;17400;52.392;9.750;2023-03-20T00:14:22;101074.03;;;12.61;100.00
30636;BME280;17400;52.392;9.750;2023-03-20T00:16:50;101078.38;;;12.55;100.00
30636;BME280;17400;52.392;9.750;2023-03-20T00:19:20;101091.94;;;12.48;100.00
30636;BME280;17400;52.392;9.750;2023-03-20T00:21:50;101088.53;;;12.33;100.00
30636;BME280;17400;52.392;9.750;2023-03-20T00:24:19;101083.44;;;12.23;100.00
30636;BME280;17400;52.392;9.750;2023-03-20T00:26:48;101090.75;;;12.23;100.00
30636;BME280;17400;52.392;9.750;2023-03-20T00:29:20;101095.53;;;12.21;100.00
30636;BME280;17400;52.392;9.750;2023-03-20T00:31:48;101095.31;;;12.22;100.00
30636;BME280;17400;52.392;9.750;2023-03-20T00:34:19;101100.16;;;12.27;100.00
30636;BME280;17400;52.392;9.750;2023-03-20T00:36:50;101093.69;;;12.28;100.00
30636;BME280;17400;52.392;9.750;2023-03-20T00:39:18;101105.75;;;12.19;100.00
30636;BME280;17400;52.392;9.750;2023-03-20T00:41:48;101089.59;;;12.10;100.00
30636;BME280;17400;52.392;9.750;2023-03-20T00:44:23;101090.00;;;12.07;100.00
30636;BME280;17400;52.392;9.750;2023-03-20T00:46:53;101092.88;;;11.99;100.00
30636;BME280;17400;52.392;9.750;2023-03-20T00:49:24;101093.13;;;12.04;100.00
30636;BME280;17400;52.392;9.750;2023-03-20T00:51:55;101096.63;;;11.98;100.00
30636;BME280;17400;52.392;9.750;2023-03-20T00:54:23;101092.91;;;12.06;100.00
30636;BME280;17400;52.392;9.750;2023-03-20T00:56:54;101090.00;;;12.07;100.00
30636;BME280;17400;52.392;9.750;2023-03-20T00:59:26;101086.16;;;11.95;100.00
30636;BME280;17400;52.392;9.750;2023-03-20T01:01:55;101086.59;;;11.98;100.00
30636;BME280;17400;52.392;9.750;2023-03-20T01:04:27;101087.44;;;11.99;100.00
30636;BME280;17400;52.392;9.750;2023-03-20T01:06:58;101088.31;;;12.06;100.00
30636;BME280;17400;52.392;9.750;2023-03-20T01:09:28;101090.53;;;11.96;100.00
30636;BME280;17400;52.392;9.750;2023-03-20T01:11:57;101089.81;;;11.87;100.00
30636;BME280;17400;52.392;9.750;2023-03-20T01:14:25;101078.56;;;11.90;100.00
30636;BME280;17400;52.392;9.750;2023-03-20T01:16:54;101089.22;;;11.92;100.00
30636;BME280;17400;52.392;9.750;2023-03-20T01:19:22;101085.63;;;11.84;100.00
30636;BME280;17400;52.392;9.750;2023-03-20T01:21:49;101088.50;;;11.76;100.00
30636;BME280;17400;52.392;9.750;2023-03-20T01:24:18;101086.81;;;11.75;100.00
30636;BME280;17400;52.392;9.750;2023-03-20T01:26:46;101086.03;;;11.81;100.00
30636;BME280;17400;52.392;9.750;2023-03-20T01:29:17;101087.31;;;11.86;100.00
30636;BME280;17400;52.392;9.750;2023-03-20T01:31:46;101087.31;;;11.86;100.00
30636;BME280;17400;52.392;9.750;2023-03-20T01:34:14;101085.56;;;11.78;100.00
30636;BME280;17400;52.392;9.750;2023-03-20T01:36:45;101092.75;;;11.86;100.00
30636;BME280;17400;52.392;9.750;2023-03-20T01:39:15;101095.25;;;11.87;100.00
30636;BME280;17400;52.392;9.750;2023-03-20T01:41:46;101099.34;;;11.76;100.00
30636;BME280;17400;52.392;9.750;2023-03-20T01:44:18;101101.19;;;11.76;100.00
30636;BME280;17400;52.392;9.750;2023-03-20T01:46:48;101106.41;;;11.77;100.00
30636;BME280;17400;52.392;9.750;2023-03-20T01:52:32;101109.28;;;11.69;100.00
30636;BME280;17400;52.392;9.750;2023-03-20T01:55:00;101108.66;;;11.67;100.00
30636;BME280;17400;52.392;9.750;2023-03-20T01:57:30;101106.38;;;11.71;100.00
30636;BME280;17400;52.392;9.750;2023-03-20T02:00:01;101115.34;;;11.71;100.00
30636;BME280;17400;52.392;9.750;2023-03-20T02:02:30;101117.22;;;11.71;100.00
30636;BME280;17400;52.392;9.750;2023-03-20T02:05:01;101126.50;;;11.61;100.00
30636;BME280;17400;52.392;9.750;2023-03-20T02:07:32;101126.59;;;11.46;100.00
30636;BME280;17400;52.392;9.750;2023-03-20T02:10:02;101131.59;;;11.49;100.00
30636;BME280;17400;52.392;9.750;2023-03-20T02:12:32;101128.06;;;11.49;100.00
30636;BME280;17400;52.392;9.750;2023-03-20T02:15:02;101126.72;;;11.60;100.00
30636;BME280;17400;52.392;9.750;2023-03-20T02:17:30;101126.97;;;11.65;100.00
30636;BME280;17400;52.392;9.750;2023-03-20T02:20:06;101135.25;;;11.57;100.00
30636;BME280;17400;52.392;9.750;2023-03-20T02:25:58;101150.50;;;11.58;100.00
30636;BME280;17400;52.392;9.750;2023-03-20T02:28:50;101151.75;;;11.40;100.00
30636;BME280;17400;52.392;9.750;2023-03-20T02:31:40;101156.13;;;11.41;100.00
30636;BME280;17400;52.392;9.750;2023-03-20T02:34:42;101150.72;;;11.41;100.00
30636;BME280;17400;52.392;9.750;2023-03-20T02:40:28;101126.84;;;11.30;100.00
30636;BME280;17400;52.392;9.750;2023-03-20T02:43:02;101126.91;;;11.37;100.00
30636;BME280;17400;52.392;9.750;2023-03-20T02:45:35;101124.91;;;11.45;100.00
30636;BME280;17400;52.392;9.750;2023-03-20T02:48:12;101123.94;;;11.53;100.00
30636;BME280;17400;52.392;9.750;2023-03-20T02:50:49;101130.09;;;11.62;100.00
30636;BME280;17400;52.392;9.750;2023-03-20T02:53:28;101125.50;;;11.62;100.00
30636;BME280;17400;52.392;9.750;2023-03-20T02:56:03;101115.56;;;11.70;100.00
30636;BME280;17400;52.392;9.750;2023-03-20T02:58:39;101112.13;;;11.61;100.00
30636;BME280;17400;52.392;9.750;2023-03-20T03:01:13;101114.94;;;11.31;100.00
30636;BME280;17400;52.392;9.750;2023-03-20T03:03:46;101120.09;;;11.26;100.00
30636;BME280;17400;52.392;9.750;2023-03-20T03:06:17;101117.22;;;11.27;100.00
30636;BME280;17400;52.392;9.750;2023-03-20T03:08:54;101113.66;;;11.27;100.00
30636;BME280;17400;52.392;9.750;2023-03-20T03:11:25;101114.94;;;11.31;100.00
30636;BME280;17400;52.392;9.750;2023-03-20T03:13:54;101125.84;;;11.38;100.00
30636;BME280;17400;52.392;9.750;2023-03-20T03:16:25;101113.63;;;11.42;100.00
30636;BME280;17400;52.392;9.750;2023-03-20T03:19:01;101116.97;;;11.44;100.00
30636;BME280;17400;52.392;9.750;2023-03-20T03:21:31;101112.84;;;11.48;100.00
30636;BME280;17400;52.392;9.750;2023-03-20T03:24:02;101112.47;;;11.51;100.00
30636;BME280;17400;52.392;9.750;2023-03-20T03:26:33;101112.47;;;11.51;100.00
30636;BME280;17400;52.392;9.750;2023-03-20T03:29:06;101108.31;;;11.33;100.00
30636;BME280;17400;52.392;9.750;2023-03-20T03:31:38;101113.56;;;11.35;100.00
30636;BME280;17400;52.392;9.750;2023-03-20T03:34:10;101118.59;;;11.38;100.00
30636;BME280;17400;52.392;9.750;2023-03-20T03:36:44;101117.50;;;11.32;100.00
30636;BME280;17400;52.392;9.750;2023-03-20T03:39:23;101108.69;;;11.09;100.00
30636;BME280;17400;52.392;9.750;2023-03-20T03:42:02;101111.81;;;11.12;100.00
30636;BME280;17400;52.392;9.750;2023-03-20T03:44:36;101110.09;;;11.05;100.00
30636;BME280;17400;52.392;9.750;2023-03-20T03:47:12;101114.81;;;11.17;100.00
30636;BME280;17400;52.392;9.750;2023-03-20T03:49:48;101117.16;;;11.21;100.00
30636;BME280;17400;52.392;9.750;2023-03-20T03:52:20;101115.06;;;11.23;100.00
30636;BME280;17400;52.392;9.750;2023-03-20T03:54:51;101117.72;;;11.16;100.00
30636;BME280;17400;52.392;9.750;2023-03-20T03:57:27;101124.28;;;11.07;100.00
30636;BME280;17400;52.392;9.750;2023-03-20T03:59:56;101122.78;;;11.04;100.00
30636;BME280;17400;52.392;9.750;2023-03-20T04:02:25;101122.38;;;11.07;100.00
30636;BME280;17400;52.392;9.750;2023-03-20T04:04:54;101119.06;;;11.05;100.00
30636;BME280;17400;52.392;9.750;2023-03-20T04:07:25;101118.78;;;11.00;100.00
30636;BME280;17400;52.392;9.750;2023-03-20T04:09:55;101126.34;;;11.05;100.00
30636;BME280;17400;52.392;9.750;2023-03-20T04:12:34;101124.47;;;11.05;100.00
30636;BME280;17400;52.392;9.750;2023-03-20T04:15:03;101124.06;;;11.08;100.00
30636;BME280;17400;52.392;9.750;2023-03-20T04:17:31;101125.69;;;11.03;100.00
30636;BME280;17400;52.392;9.750;2023-03-20T04:19:59;101119.72;;;10.92;100.00
30636;BME280;17400;52.392;9.750;2023-03-20T04:22:27;101121.13;;;10.88;100.00
30636;BME280;17400;52.392;9.750;2023-03-20T04:24:56;101120.66;;;10.84;100.00
30636;BME280;17400;52.392;9.750;2023-03-20T04:27:25;101118.72;;;10.78;100.00
30636;BME280;17400;52.392;9.750;2023-03-20T04:29:53;101119.63;;;10.86;100.00
30636;BME280;17400;52.392;9.750;2023-03-20T04:32:20;101115.91;;;10.87;100.00
30636;BME280;17400;52.392;9.750;2023-03-20T04:34:48;101110.50;;;10.87;100.00
30636;BME280;17400;52.392;9.750;2023-03-20T04:37:18;101110.31;;;10.73;100.00
30636;BME280;17400;52.392;9.750;2023-03-20T04:39:45;101114.72;;;10.59;100.00
30636;BME280;17400;52.392;9.750;2023-03-20T04:42:14;101110.31;;;10.73;100.00
30636;BME280;17400;52.392;9.750;2023-03-20T04:44:42;101109.38;;;10.81;100.00
30636;BME280;17400;52.392;9.750;2023-03-20T04:47:10;101104.88;;;10.88;100.00
30636;BME280;17400;52.392;9.750;2023-03-20T04:49:37;101108.88;;;10.92;100.00
30636;BME280;17400;52.392;9.750;2023-03-20T04:52:05;101104.00;;;11.03;100.00
30636;BME280;17400;52.392;9.750;2023-03-20T04:54:33;101111.94;;;11.04;100.00
30636;BME280;17400;52.392;9.750;2023-03-20T04:57:01;101111.19;;;11.10;100.00
30636;BME280;17400;52.392;9.750;2023-03-20T04:59:30;101099.81;;;11.00;100.00
30636;BME280;17400;52.392;9.750;2023-03-20T05:01:58;101101.41;;;10.94;100.00
30636;BME280;17400;52.392;9.750;2023-03-20T05:04:26;101104.97;;;10.95;100.00
30636;BME280;17400;52.392;9.750;2023-03-20T05:06:54;101090.50;;;10.88;100.00
30636;BME280;17400;52.392;9.750;2023-03-20T05:09:22;101091.41;;;10.95;100.00
30636;BME280;17400;52.392;9.750;2023-03-20T05:11:50;101095.81;;;10.96;100.00
30636;BME280;17400;52.392;9.750;2023-03-20T05:14:18;101096.84;;;10.95;100.00
30636;BME280;17400;52.392;9.750;2023-03-20T05:16:47;101103.28;;;10.94;100.00
30636;BME280;17400;52.392;9.750;2023-03-20T05:19:15;101096.38;;;10.91;100.00
30636;BME280;17400;52.392;9.750;2023-03-20T05:21:43;101092.81;;;10.91;100.00
30636;BME280;17400;52.392;9.750;2023-03-20T05:24:11;101091.16;;;10.90;100.00
30636;BME280;17400;52.392;9.750;2023-03-20T05:26:39;101089.28;;;10.90;100.00
30636;BME280;17400;52.392;9.750;2023-03-20T05:29:06;101094.13;;;10.95;100.00
30636;BME280;17400;52.392;9.750;2023-03-20T05:31:34;101094.78;;;10.97;100.00
30636;BME280;17400;52.392;9.750;2023-03-20T05:34:03;101095.16;;;10.94;100.00
30636;BME280;17400;52.392;9.750;2023-03-20T05:36:31;101100.56;;;10.94;100.00
30636;BME280;17400;52.392;9.750;2023-03-20T05:38:59;101098.91;;;10.93;100.00
30636;BME280;17400;52.392;9.750;2023-03-20T05:41:27;101101.03;;;10.97;100.00
30636;BME280;17400;52.392;9.750;2023-03-20T05:43:54;101098.72;;;10.94;100.00
30636;BME280;17400;52.392;9.750;2023-03-20T05:46:22;101106.44;;;10.97;100.00
30636;BME280;17400;52.392;9.750;2023-03-20T05:48:52;101108.59;;;11.02;100.00
30636;BME280;17400;52.392;9.750;2023-03-20T05:51:21;101101.09;;;11.04;100.00
30636;BME280;17400;52.392;9.750;2023-03-20T05:53:51;101101.69;;;10.99;100.00
30636;BME280;17400;52.392;9.750;2023-03-20T05:56:19;101102.31;;;11.02;100.00
30636;BME280;17400;52.392;9.750;2023-03-20T05:58:47;101104.69;;;10.90;100.00
30636;BME280;17400;52.392;9.750;2023-03-20T06:01:17;101098.78;;;10.86;100.00
30636;BME280;17400;52.392;9.750;2023-03-20T06:03:47;101104.13;;;10.79;100.00
30636;BME280;17400;52.392;9.750;2023-03-20T06:06:15;101109.56;;;10.79;100.00
30636;BME280;17400;52.392;9.750;2023-03-20T06:08:44;101112.53;;;10.84;100.00
30636;BME280;17400;52.392;9.750;2023-03-20T06:11:12;101111.91;;;10.82;100.00
30636;BME280;17400;52.392;9.750;2023-03-20T06:13:40;101111.72;;;10.84;100.00
30636;BME280;17400;52.392;9.750;2023-03-20T06:16:08;101114.13;;;10.79;100.00
30636;BME280;17400;52.392;9.750;2023-03-20T06:18:36;101104.91;;;10.73;100.00
30636;BME280;17400;52.392;9.750;2023-03-20T06:21:05;101114.72;;;10.74;100.00
30636;BME280;17400;52.392;9.750;2023-03-20T06:23:33;101117.03;;;10.77;100.00
30636;BME280;17400;52.392;9.750;2023-03-20T06:26:05;101117.31;;;10.82;100.00
30636;BME280;17400;52.392;9.750;2023-03-20T06:28:34;101124.22;;;10.85;100.00
30636;BME280;17400;52.392;9.750;2023-03-20T06:31:02;101128.25;;;10.89;100.00
30636;BME280;17400;52.392;9.750;2023-03-20T06:33:30;101128.69;;;10.78;100.00
30636;BME280;17400;52.392;9.750;2023-03-20T06:35:58;101140.75;;;10.75;100.00
30636;BME280;17400;52.392;9.750;2023-03-20T06:38:26;101130.94;;;10.89;100.00
30636;BME280;17400;52.392;9.750;2023-03-20T06:40:54;101133.19;;;10.86;100.00
30636;BME280;17400;52.392;9.750;2023-03-20T06:43:23;101138.41;;;10.87;100.00
30636;BME280;17400;52.392;9.750;2023-03-20T06:45:54;101144.28;;;10.91;100.00
30636;BME280;17400;52.392;9.750;2023-03-20T06:48:21;101150.94;;;10.73;100.00
30636;BME280;17400;52.392;9.750;2023-03-20T06:50:50;101147.56;;;10.71;100.00
30636;BME280;17400;52.392;9.750;2023-03-20T06:53:19;101146.81;;;10.77;100.00
30636;BME280;17400;52.392;9.750;2023-03-20T06:55:47;101146.56;;;10.72;100.00
30636;BME280;17400;52.392;9.750;2023-03-20T06:58:15;101145.25;;;10.68;100.00
30636;BME280;17400;52.392;9.750;2023-03-20T07:00:45;101154.88;;;10.71;100.00
30636;BME280;17400;52.392;9.750;2023-03-20T07:03:13;101157.00;;;10.75;100.00
30636;BME280;17400;52.392;9.750;2023-03-20T07:05:41;101145.31;;;10.90;100.00
30636;BME280;17400;52.392;9.750;2023-03-20T07:08:09;101149.44;;;10.86;100.00
30636;BME280;17400;52.392;9.750;2023-03-20T07:10:36;101148.97;;;10.97;100.00
30636;BME280;17400;52.392;9.750;2023-03-20T07:13:05;101150.63;;;10.98;100.00
30636;BME280;17400;52.392;9.750;2023-03-20T07:15:32;101155.22;;;10.97;100.00
30636;BME280;17400;52.392;9.750;2023-03-20T07:18:02;101143.81;;;10.87;100.00
30636;BME280;17400;52.392;9.750;2023-03-20T07:20:30;101139.63;;;10.84;100.00
30636;BME280;17400;52.392;9.750;2023-03-20T07:22:57;101142.53;;;10.83;100.00
30636;BME280;17400;52.392;9.750;2023-03-20T07:25:25;101152.53;;;10.82;100.00
30636;BME280;17400;52.392;9.750;2023-03-20T07:28:08;101149.44;;;10.86;100.00
30636;BME280;17400;52.392;9.750;2023-03-20T07:30:35;101147.28;;;10.96;100.00
30636;BME280;17400;52.392;9.750;2023-03-20T07:33:10;101161.09;;;10.86;100.00
30636;BME280;17400;52.392;9.750;2023-03-20T07:35:37;101152.69;;;10.96;100.00
30636;BME280;17400;52.392;9.750;2023-03-20T07:38:05;101156.44;;;10.95;100.00
30636;BME280;17400;52.392;9.750;2023-03-20T07:40:33;101169.59;;;10.83;100.00
30636;BME280;17400;52.392;9.750;2023-03-20T07:43:01;101175.41;;;10.65;100.00
30636;BME280;17400;52.392;9.750;2023-03-20T07:45:29;101166.91;;;10.68;100.00
30636;BME280;17400;52.392;9.750;2023-03-20T07:47:58;101179.13;;;10.79;100.00
30636;BME280;17400;52.392;9.750;2023-03-20T07:50:27;101187.53;;;10.84;100.00
30636;BME280;17400;52.392;9.750;2023-03-20T07:52:55;101174.00;;;10.84;100.00
30636;BME280;17400;52.392;9.750;2023-03-20T07:55:22;101176.22;;;10.80;100.00
30636;BME280;17400;52.392;9.750;2023-03-20T07:57:50;101171.84;;;10.79;100.00
30636;BME280;17400;52.392;9.750;2023-03-20T08:00:18;101176.59;;;10.92;100.00
30636;BME280;17400;52.392;9.750;2023-03-20T08:02:47;101176.41;;;10.94;100.00
30636;BME280;17400;52.392;9.750;2023-03-20T08:05:15;101175.38;;;10.95;100.00
30636;BME280;17400;52.392;9.750;2023-03-20T08:07:44;101181.09;;;11.00;100.00
30636;BME280;17400;52.392;9.750;2023-03-20T08:10:12;101172.56;;;11.03;100.00
30636;BME280;17400;52.392;9.750;2023-03-20T08:12:40;101183.78;;;11.00;100.00
30636;BME280;17400;52.392;9.750;2023-03-20T08:15:09;101190.88;;;10.86;100.00
30636;BME280;17400;52.392;9.750;2023-03-20T08:17:37;101185.47;;;10.86;100.00
30636;BME280;17400;52.392;9.750;2023-03-20T08:20:05;101182.59;;;10.88;100.00
30636;BME280;17400;52.392;9.750;2023-03-20T08:22:33;101175.59;;;10.93;100.00
30636;BME280;17400;52.392;9.750;2023-03-20T08:25:06;101175.00;;;10.98;100.00
30636;BME280;17400;52.392;9.750;2023-03-20T08:27:34;101182.78;;;11.01;100.00
30636;BME280;17400;52.392;9.750;2023-03-20T08:30:02;101183.88;;;11.07;100.00
30636;BME280;17400;52.392;9.750;2023-03-20T08:32:30;101173.03;;;11.07;100.00
30636;BME280;17400;52.392;9.750;2023-03-20T08:34:58;101169.88;;;11.03;100.00
30636;BME280;17400;52.392;9.750;2023-03-20T08:37:26;101174.16;;;11.12;100.00
30636;BME280;17400;52.392;9.750;2023-03-20T08:39:54;101181.81;;;11.24;100.00
30636;BME280;17400;52.392;9.750;2023-03-20T08:42:23;101190.03;;;11.15;100.00
30636;BME280;17400;52.392;9.750;2023-03-20T08:44:51;101194.91;;;11.05;100.00
30636;BME280;17400;52.392;9.750;2023-03-20T08:47:19;101196.94;;;11.03;100.00
30636;BME280;17400;52.392;9.750;2023-03-20T08:49:48;101198.00;;;10.87;100.00
30636;BME280;17400;52.392;9.750;2023-03-20T08:52:15;101210.72;;;10.87;100.00
30636;BME280;17400;52.392;9.750;2023-03-20T08:54:43;101201.09;;;10.84;100.00
30636;BME280;17400;52.392;9.750;2023-03-20T08:57:11;101208.38;;;10.83;100.00
30636;BME280;17400;52.392;9.750;2023-03-20T08:59:42;101209.13;;;10.77;100.00
30636;BME280;17400;52.392;9.750;2023-03-20T09:02:10;101199.50;;;10.90;100.00
30636;BME280;17400;52.392;9.750;2023-03-20T09:04:38;101208.09;;;10.93;100.00
30636;BME280;17400;52.392;9.750;2023-03-20T09:07:07;101197.81;;;10.89;100.00
30636;BME280;17400;52.392;9.750;2023-03-20T09:09:38;101199.19;;;10.84;100.00
30636;BME280;17400;52.392;9.750;2023-03-20T09:12:06;101205.94;;;10.89;100.00
30636;BME280;17400;52.392;9.750;2023-03-20T09:14:34;101204.53;;;10.78;100.00
30636;BME280;17400;52.392;9.750;2023-03-20T09:17:05;101206.50;;;10.84;100.00
30636;BME280;17400;52.392;9.750;2023-03-20T09:19:33;101208.63;;;10.89;100.00
30636;BME280;17400;52.392;9.750;2023-03-20T09:22:04;101203.88;;;10.91;100.00
30636;BME280;17400;52.392;9.750;2023-03-20T09:24:32;101207.63;;;10.90;100.00
30636;BME280;17400;52.392;9.750;2023-03-20T09:26:59;101212.94;;;10.83;100.00
30636;BME280;17400;52.392;9.750;2023-03-20T09:29:30;101209.22;;;10.69;100.00
30636;BME280;17400;52.392;9.750;2023-03-20T09:31:58;101213.31;;;10.65;100.00
30636;BME280;17400;52.392;9.750;2023-03-20T09:34:28;101211.16;;;10.75;100.00
30636;BME280;17400;52.392;9.750;2023-03-20T09:36:56;101216.31;;;10.85;100.00
30636;BME280;17400;52.392;9.750;2023-03-20T09:39:24;101215.81;;;10.96;100.00
30636;BME280;17400;52.392;9.750;2023-03-20T09:41:52;101218.34;;;10.98;100.00
30636;BME280;17400;52.392;9.750;2023-03-20T09:44:36;101213.88;;;11.05;100.00
30636;BME280;17400;52.392;9.750;2023-03-20T09:47:13;101212.56;;;11.01;100.00
30636;BME280;17400;52.392;9.750;2023-03-20T09:50:00;101221.34;;;11.03;100.00
30636;BME280;17400;52.392;9.750;2023-03-20T09:52:35;101213.97;;;10.97;100.00
30636;BME280;17400;52.392;9.750;2023-03-20T09:55:12;101219.56;;;11.10;100.00
30636;BME280;17400;52.392;9.750;2023-03-20T09:57:42;101221.63;;;11.08;100.00
30636;BME280;17400;52.392;9.750;2023-03-20T10:00:16;101225.72;;;11.04;100.00
30636;BME280;17400;52.392;9.750;2023-03-20T10:02:48;101211.63;;;11.09;100.00
30636;BME280;17400;52.392;9.750;2023-03-20T10:05:21;101218.25;;;11.21;100.00
30636;BME280;17400;52.392;9.750;2023-03-20T10:07:51;101212.81;;;11.21;99.09
30636;BME280;17400;52.392;9.750;2023-03-20T10:10:25;101217.81;;;11.03;99.03
30636;BME280;17400;52.392;9.750;2023-03-20T10:13:05;101225.00;;;11.10;99.30
30636;BME280;17400;52.392;9.750;2023-03-20T10:15:42;101216.66;;;11.12;99.98
30636;BME280;17400;52.392;9.750;2023-03-20T10:18:17;101215.94;;;11.18;100.00
30636;BME280;17400;52.392;9.750;2023-03-20T10:20:53;101219.75;;;11.24;99.74
30636;BME280;17400;52.392;9.750;2023-03-20T10:23:27;101208.31;;;11.28;100.00
30636;BME280;17400;52.392;9.750;2023-03-20T10:26:00;101207.38;;;11.36;98.82
30636;BME280;17400;52.392;9.750;2023-03-20T10:28:34;101215.66;;;11.49;98.48
30636;BME280;17400;52.392;9.750;2023-03-20T10:31:15;101211.84;;;11.44;95.31
30636;BME280;17400;52.392;9.750;2023-03-20T10:33:55;101211.69;;;11.30;93.70
30636;BME280;17400;52.392;9.750;2023-03-20T10:36:38;101218.91;;;11.23;94.02
30636;BME280;17400;52.392;9.750;2023-03-20T10:39:15;101213.66;;;11.22;92.91
30636;BME280;17400;52.392;9.750;2023-03-20T10:41:52;101212.50;;;11.46;91.42
30636;BME280;17400;52.392;9.750;2023-03-20T10:44:29;101210.44;;;11.48;86.71
30636;BME280;17400;52.392;9.750;2023-03-20T10:47:00;101210.22;;;11.49;85.37
30636;BME280;17400;52.392;9.750;2023-03-20T10:49:36;101202.56;;;11.53;86.75
30636;BME280;17400;52.392;9.750;2023-03-20T10:52:09;101197.94;;;11.69;85.16
30636;BME280;17400;52.392;9.750;2023-03-20T10:54:41;101203.31;;;11.83;84.63
30636;BME280;17400;52.392;9.750;2023-03-20T10:57:14;101205.81;;;11.85;84.90
30636;BME280;17400;52.392;9.750;2023-03-20T10:59:47;101186.75;;;11.78;81.32
30636;BME280;17400;52.392;9.750;2023-03-20T11:02:18;101203.69;;;11.80;80.45
30636;BME280;17400;52.392;9.750;2023-03-20T11:04:47;101199.69;;;11.76;78.49
30636;BME280;17400;52.392;9.750;2023-03-20T11:07:22;101204.06;;;11.77;78.17
30636;BME280;17400;52.392;9.750;2023-03-20T11:12:38;101195.94;;;11.77;76.90
30636;BME280;17400;52.392;9.750;2023-03-20T11:15:18;101187.63;;;12.00;76.47
30636;BME280;17400;52.392;9.750;2023-03-20T11:17:51;101177.59;;;12.01;75.54
30636;BME280;17400;52.392;9.750;2023-03-20T11:20:20;101176.22;;;11.90;73.46
30636;BME280;17400;52.392;9.750;2023-03-20T11:22:50;101172.03;;;11.88;75.32
30636;BME280;17400;52.392;9.750;2023-03-20T11:25:31;101171.56;;;11.99;74.45
30636;BME280;17400;52.392;9.750;2023-03-20T11:28:17;101172.59;;;11.98;75.33
30636;BME280;17400;52.392;9.750;2023-03-20T11:30:46;101172.03;;;11.88;75.66
30636;BME280;17400;52.392;9.750;2023-03-20T11:33:31;101173.91;;;11.87;76.00
30636;BME280;17400;52.392;9.750;2023-03-20T11:36:00;101168.81;;;11.77;76.74
30636;BME280;17400;52.392;9.750;2023-03-20T11:38:30;101171.50;;;11.77;76.89
30636;BME280;17400;52.392;9.750;2023-03-20T11:40:58;101167.63;;;11.87;78.01
30636;BME280;17400;52.392;9.750;2023-03-20T11:43:26;101167.84;;;11.85;76.93
30636;BME280;17400;52.392;9.750;2023-03-20T11:45:56;101172.50;;;11.70;75.78
30636;BME280;17400;52.392;9.750;2023-03-20T11:48:35;101167.91;;;11.70;74.60
30636;BME280;17400;52.392;9.750;2023-03-20T11:51:04;101160.66;;;11.77;73.87
30636;BME280;17400;52.392;9.750;2023-03-20T11:53:38;101166.19;;;11.84;74.44
30636;BME280;17400;52.392;9.750;2023-03-20T11:56:08;101149.06;;;11.83;73.79
30636;BME280;17400;52.392;9.750;2023-03-20T11:58:45;101146.75;;;12.02;73.20
30636;BME280;17400;52.392;9.750;2023-03-20T12:01:16;101142.28;;;12.16;72.87
30636;BME280;17400;52.392;9.750;2023-03-20T12:03:50;101144.63;;;12.26;68.82
30636;BME280;17400;52.392;9.750;2023-03-20T12:06:24;101122.72;;;12.27;65.17
30636;BME280;17400;52.392;9.750;2023-03-20T12:08:57;101120.59;;;12.23;65.36
30636;BME280;17400;52.392;9.750;2023-03-20T12:11:37;101126.69;;;12.31;63.97
30636;BME280;17400;52.392;9.750;2023-03-20T12:14:19;101125.16;;;12.22;62.92
30636;BME280;17400;52.392;9.750;2023-03-20T12:16:52;101129.41;;;12.31;61.56
30636;BME280;17400;52.392;9.750;2023-03-20T12:19:27;101138.59;;;12.02;62.71
30636;BME280;17400;52.392;9.750;2023-03-20T12:22:00;101141.72;;;11.99;64.45
30636;BME280;17400;52.392;9.750;2023-03-20T12:24:40;101142.69;;;12.20;64.34
30636;BME280;17400;52.392;9.750;2023-03-20T12:27:17;101145.06;;;12.29;63.69
30636;BME280;17400;52.392;9.750;2023-03-20T12:29:51;101141.03;;;12.19;64.46
30636;BME280;17400;52.392;9.750;2023-03-20T12:32:25;101140.72;;;12.07;62.77
30636;BME280;17400;52.392;9.750;2023-03-20T12:34:58;101137.16;;;12.06;61.56
30636;BME280;17400;52.392;9.750;2023-03-20T12:37:29;101134.03;;;12.03;60.14
30636;BME280;17400;52.392;9.750;2023-03-20T12:39:59;101131.09;;;12.04;59.80
30636;BME280;17400;52.392;9.750;2023-03-20T12:42:37;101130.31;;;12.10;60.97
30636;BME280;17400;52.392;9.750;2023-03-20T12:45:11;101125.13;;;12.15;61.69
30636;BME280;17400;52.392;9.750;2023-03-20T12:47:49;101133.69;;;12.12;60.79
30636;BME280;17400;52.392;9.750;2023-03-20T12:50:27;101138.50;;;12.17;59.59
30636;BME280;17400;52.392;9.750;2023-03-20T12:53:08;101129.28;;;12.11;58.85
30636;BME280;17400;52.392;9.750;2023-03-20T12:55:51;101132.28;;;11.95;60.28
30636;BME280;17400;52.392;9.750;2023-03-20T12:58:27;101139.00;;;11.99;60.55
30636;BME280;17400;52.392;9.750;2023-03-20T13:01:02;101130.84;;;11.99;60.16
30636;BME280;17400;52.392;9.750;2023-03-20T13:04:00;101125.03;;;12.02;60.80
30636;BME280;17400;52.392;9.750;2023-03-20T13:06:41;101119.78;;;12.29;60.00
30636;BME280;17400;52.392;9.750;2023-03-20T13:09:42;101119.91;;;12.42;58.62
30636;BME280;17400;52.392;9.750;2023-03-20T13:12:21;101113.56;;;12.35;59.39
30636;BME280;17400;52.392;9.750;2023-03-20T13:14:55;101107.66;;;12.25;59.76
30636;BME280;17400;52.392;9.750;2023-03-20T13:17:30;101097.28;;;12.35;59.29